Date,TemperatureHighF,TemperatureAvgF,TemperatureLowF,DewpointHighF,DewpointAvgF,DewpointLowF,HumidityHigh,HumidityAvg,HumidityLow,PressureMaxIn,PressureMinIn,WindSpeedMaxMPH,WindSpeedAvgMPH,GustSpeedMaxMPH,PrecipitationSumIn
2013-7-1,67,62,57,60,53,40,97,75,45,29.12,29.00,11,2,11,0.00
2013-7-2,78,65,57,64,59,55,98,81,58,29.15,29.06,8,1,8,0.00
2013-7-3,87,71,59,68,63,58,98,78,43,29.18,29.09,9,1,9,0.00
2013-7-4,85,74,66,68,63,57,97,72,44,29.21,29.15,11,1,11,0.94
2013-7-5,91,76,66,70,63,54,97,70,32,29.18,29.12,6,0,6,0.00
2013-7-6,88,74,66,72,68,63,98,81,49,29.18,29.06,12,1,12,0.00
2013-7-7,85,74,68,73,68,64,98,85,53,29.09,29.03,9,0,9,0.04
2013-7-8,84,74,68,76,69,65,98,86,70,29.12,29.03,15,1,15,0.00
2013-7-9,92,76,70,73,70,66,98,82,46,29.06,28.94,12,1,12,0.28
2013-7-10,91,78,64,77,68,54,98,75,46,29.03,28.85,12,1,12,0.16
2013-7-11,82,68,57,58,54,49,97,65,34,29.12,29.03,11,1,11,0.04
2013-7-12,87,69,54,62,57,51,98,70,36,29.21,29.12,9,1,9,0.00
2013-7-13,90,74,59,65,59,51,97,65,31,29.29,29.21,10,0,10,0.00
2013-7-14,95,78,63,72,66,61,98,70,39,29.32,29.26,6,0,6,0.00
2013-7-15,99,80,68,76,71,66,98,76,42,29.35,29.29,8,0,10,0.00
2013-7-16,95,82,74,80,74,69,97,78,48,29.38,29.29,8,0,8,0.00
2013-7-17,98,82,72,78,73,70,97,75,47,29.35,29.21,8,1,8,0.00
2013-7-18,98,83,72,77,71,64,96,71,40,29.23,29.03,12,1,12,0.00
2013-7-19,98,85,76,75,71,64,89,65,36,29.06,28.79,15,2,15,0.00
2013-7-20,90,77,67,70,63,54,98,68,34,29.00,28.82,15,1,15,0.00
2013-7-21,89,73,62,65,60,53,94,66,36,29.09,29.00,8,1,8,0.00
2013-7-22,87,74,67,70,64,58,90,72,44,29.03,28.85,7,0,7,0.00
2013-7-23,88,71,59,73,64,49,97,80,53,28.94,28.76,12,2,13,0.04
2013-7-24,75,63,53,52,49,46,86,61,38,29.12,28.94,9,1,11,0.00
2013-7-25,84,65,48,57,51,46,98,66,30,29.18,29.12,7,0,7,0.00
2013-7-26,85,68,55,60,55,52,94,65,37,29.18,28.97,10,1,10,0.00
2013-7-27,73,65,53,69,61,52,96,88,71,29.00,28.82,10,1,10,0.04
2013-7-28,68,58,50,55,52,49,98,82,59,29.03,28.91,15,2,15,0.00
2013-7-29,71,61,56,56,53,51,92,76,52,29.23,29.03,10,1,10,0.00
2013-7-30,85,66,50,62,55,49,98,72,34,29.29,29.18,7,0,7,0.00
2013-7-31,79,68,63,68,64,60,98,89,63,29.18,28.97,6,0,6,0.00